Flight Track Log - Related Links

Times and Time Zones

All times are in EDT time to prevent confusion due to time zone crossing. See the GLA10 flight status page for this flight to view local times or setup timezone preferences in your user account.

Time Position Orientation Groundspeed Altitude Reporting Facility
EDT Latitude Longitude Course Direction KTS MPH feet Rate Location/Type
Tue 01:00:33 PM 44.8833 -93.3000 279° West 179 206 3,600  Level Minneapolis TRACON
Tue 01:00:58 PM 44.8856 -93.3189 279° West 179 206 4,500 1,724 Climbing Minneapolis Center
Tue 01:02:00 PM 44.8514 -93.3675 225° Southwest 185 213 6,100 1,548 Climbing Minneapolis Center
Tue 01:03:02 PM 44.8122 -93.4100 218° Southwest 181 208 7,700 1,645 Climbing Minneapolis Center
Tue 01:04:04 PM 44.7767 -93.4750 232° Southwest 179 206 9,500 1,645 Climbing Minneapolis Center
Tue 01:05:06 PM 44.7481 -93.5283 233° Southwest 172 198 11,100 1,171 Climbing Minneapolis Center
Tue 01:06:07 PM 44.7222 -93.5819 236° Southwest 167 192 11,900 439 Climbing Minneapolis Center
Tue 01:07:09 PM 44.6933 -93.6411 236° Southwest 180 207 12,000 48 Climbing Minneapolis Center
Tue 01:08:11 PM 44.6672 -93.6944 235° Southwest 167 192 12,000  Level Minneapolis Center
Tue 01:09:13 PM 44.6419 -93.7453 235° Southwest 159 183 12,000 339 Level Minneapolis Center
Tue 01:10:15 PM 44.6119 -93.8056 235° Southwest 163 188 12,700 1,024 Climbing Minneapolis Center
Tue 01:11:16 PM 44.5836 -93.8539 231° Southwest 164 189 14,100 1,366 Climbing Minneapolis Center
Tue 01:12:18 PM 44.5542 -93.9022 229° Southwest 163 188 15,500 1,113 Climbing Minneapolis Center
Tue 01:13:20 PM 44.5283 -93.9533 235° Southwest 161 185 16,400 823 Climbing Minneapolis Center
Tue 01:14:22 PM 44.5017 -94.0047 234° Southwest 164 189 17,200 1,016 Climbing Minneapolis Center
Tue 01:15:24 PM 44.4747 -94.0531 232° Southwest 160 184 18,500 1,065 Climbing Minneapolis Center
Tue 01:16:26 PM 44.4417 -94.1075 230° Southwest 155 178 19,400 871 Climbing Minneapolis Center
Tue 01:17:28 PM 44.4161 -94.1578 235° Southwest 158 182 20,300 774 Climbing Minneapolis Center
Tue 01:18:30 PM 44.3897 -94.2047 232° Southwest 156 180 21,000 677 Climbing Minneapolis Center
Tue 01:19:32 PM 44.3622 -94.2547 232° Southwest 160 184 21,700 677 Climbing Minneapolis Center
Tue 01:20:34 PM 44.3347 -94.3033 232° Southwest 159 183 22,400 780 Climbing Minneapolis Center
Tue 01:21:35 PM 44.3103 -94.3519 235° Southwest 155 178 23,300 732 Climbing Minneapolis Center
Tue 01:22:37 PM 44.2789 -94.4081 232° Southwest 153 176 23,900 307 Climbing Minneapolis Center
Tue 01:23:52 PM 44.2397 -94.4717 229° Southwest 175 201 24,000 40 Climbing Minneapolis Center
Tue 01:25:06 PM 44.2058 -94.5358 234° Southwest 201 231 24,000  Level Minneapolis Center
Tue 01:26:08 PM 44.1667 -94.6136 235° Southwest 204 235 24,000  Level Minneapolis Center
Tue 01:27:22 PM 44.1322 -94.6828 235° Southwest 206 237 24,000  Level Minneapolis Center
Tue 01:28:24 PM 44.0964 -94.7583 237° Southwest 199 229 24,000  Level Minneapolis Center
Tue 01:29:26 PM 44.0653 -94.8217 236° Southwest 197 227 24,000  Level Minneapolis Center
Tue 01:30:28 PM 44.0303 -94.8958 237° Southwest 193 222 24,000  Level Minneapolis Center
Tue 01:31:30 PM 43.9989 -94.9575 235° Southwest 194 223 24,000  Level Minneapolis Center
Tue 01:32:32 PM 43.9664 -95.0181 233° Southwest 194 223 24,000  Level Minneapolis Center
Tue 01:33:34 PM 43.9342 -95.0792 234° Southwest 196 226 24,000  Level Minneapolis Center
Tue 01:34:36 PM 43.9000 -95.1383 231° Southwest 196 226 24,000  Level Minneapolis Center
Tue 01:35:37 PM 43.8644 -95.1978 230° Southwest 199 229 24,000  Level Minneapolis Center
Tue 01:36:39 PM 43.8303 -95.2567 231° Southwest 197 227 24,000  Level Minneapolis Center
Tue 01:37:41 PM 43.7858 -95.3239 228° Southwest 198 228 24,000  Level Minneapolis Center
Tue 01:38:43 PM 43.7553 -95.3872 236° Southwest 197 227 24,000  Level Minneapolis Center
Tue 01:39:45 PM 43.7292 -95.4531 241° Southwest 195 224 24,000  Level Minneapolis Center
Tue 01:40:47 PM 43.7064 -95.5219 245° Southwest 197 227 24,000  Level Minneapolis Center
Tue 01:41:48 PM 43.6872 -95.5925 249° West 198 228 24,000  Level Minneapolis Center
Tue 01:42:50 PM 43.6739 -95.6644 256° West 194 223 24,000  Level Minneapolis Center
Tue 01:43:52 PM 43.6603 -95.7372 256° West 196 226 24,000  Level Minneapolis Center
Tue 01:44:54 PM 43.6403 -95.8283 253° West 205 236 24,000  Level Minneapolis Center
Tue 01:45:55 PM 43.6233 -95.9075 254° West 214 246 24,000  Level Minneapolis Center
Tue 01:46:57 PM 43.6053 -95.9867 253° West 217 250 24,000  Level Minneapolis Center
Tue 01:47:59 PM 43.5900 -96.0667 255° West 215 247 24,000  Level Minneapolis Center
Tue 01:49:01 PM 43.5756 -96.1458 256° West 214 246 24,000  Level Minneapolis Center
Tue 01:50:03 PM 43.5606 -96.2256 255° West 214 246 24,000  Level Minneapolis Center
Tue 01:51:04 PM 43.5453 -96.3044 255° West 214 246 24,000  Level Minneapolis Center
Tue 01:52:07 PM 43.5292 -96.3831 254° West 213 245 24,000  Level Minneapolis Center
Tue 01:53:08 PM 43.5106 -96.4786 255° West 214 246 24,000  Level Minneapolis Center
Tue 01:54:10 PM 43.4953 -96.5581 255° West 215 247 24,000  Level Minneapolis Center
Tue 01:55:11 PM 43.4792 -96.6383 255° West 216 249 24,000  Level Minneapolis Center
Tue 01:56:13 PM 43.4628 -96.7183 254° West 217 250 24,000  Level Minneapolis Center
Tue 01:57:15 PM 43.4472 -96.8000 255° West 220 253 24,000  Level Minneapolis Center
Tue 01:58:16 PM 43.4331 -96.8756 256° West 208 239 24,000 -49 Level Minneapolis Center
Tue 01:59:18 PM 43.4208 -96.9511 257° West 202 232 23,900  Descending Minneapolis Center
Tue 02:00:21 PM 43.3978 -97.0361 250° West 200 230 24,000 48 Climbing Minneapolis Center
Tue 02:01:23 PM 43.3781 -97.1069 249° West 198 228 24,000  Level Minneapolis Center
Tue 02:02:24 PM 43.3592 -97.1767 250° West 197 227 24,000  Level Minneapolis Center
Tue 02:03:26 PM 43.3403 -97.2478 250° West 197 227 24,000  Level Minneapolis Center
Tue 02:04:28 PM 43.3214 -97.3194 250° West 198 228 24,000  Level Minneapolis Center
Tue 02:05:29 PM 43.3031 -97.3892 250° West 196 226 24,000  Level Minneapolis Center
Tue 02:06:31 PM 43.2828 -97.4589 248° West 197 227 24,000  Level Minneapolis Center
Tue 02:07:33 PM 43.2606 -97.5439 250° West 198 228 24,000  Level Minneapolis Center
Tue 02:08:47 PM 43.2428 -97.6172 252° West 201 231 24,000  Level Minneapolis Center
Tue 02:09:49 PM 43.2200 -97.7086 251° West 208 239 24,000  Level Minneapolis Center
Tue 02:10:50 PM 43.1967 -97.7844 247° West 214 246 24,000  Level Minneapolis Center
Tue 02:11:52 PM 43.1739 -97.8636 248° West 221 254 24,000  Level Minneapolis Center
Tue 02:12:54 PM 43.1511 -97.9403 248° West 218 251 24,000  Level Minneapolis Center
Tue 02:13:56 PM 43.1289 -98.0197 249° West 222 255 24,000  Level Minneapolis Center
Tue 02:14:57 PM 43.1019 -98.1156 249° West 226 260 24,000  Level Minneapolis Center
Tue 02:15:59 PM 43.0789 -98.1950 248° West 225 259 24,000  Level Minneapolis Center
Tue 02:17:01 PM 43.0606 -98.2728 252° West 217 250 24,000  Level Minneapolis Center
Tue 02:18:03 PM 43.0403 -98.3508 250° West 218 251 24,000  Level Minneapolis Center
Tue 02:19:05 PM 43.0206 -98.4281 251° West 217 250 24,000  Level Minneapolis Center
Tue 02:20:06 PM 43.0008 -98.5072 251° West 219 252 24,000  Level Minneapolis Center
Tue 02:21:08 PM 42.9781 -98.5853 248° West 220 253 24,000  Level Minneapolis Center
Tue 02:22:10 PM 42.9514 -98.6753 248° West 216 249 24,000  Level Minneapolis Center
Tue 02:23:11 PM 42.9331 -98.7528 252° West 215 247 24,000  Level Minneapolis Center
Tue 02:24:13 PM 42.9175 -98.8150 251° West 218 251 24,000  Level Minneapolis Center
Tue 02:25:15 PM 42.8928 -98.9067 250° West 217 250 24,000  Level Minneapolis Center
Tue 02:26:17 PM 42.8714 -98.9858 250° West 216 249 24,000  Level Minneapolis Center
Tue 02:27:18 PM 42.8525 -99.0661 252° West 219 252 24,000  Level Minneapolis Center
Tue 02:28:20 PM 42.8317 -99.1428 250° West 217 250 24,000  Level Minneapolis Center
Tue 02:29:22 PM 42.8128 -99.2208 252° West 218 251 24,000 48 Level Minneapolis Center
Tue 02:30:24 PM 42.7897 -99.3158 252° West 221 254 24,100  Climbing Minneapolis Center
Tue 02:31:26 PM 42.7669 -99.3928 248° West 219 252 24,000 -49 Descending Minneapolis Center
Tue 02:32:27 PM 42.7458 -99.4711 250° West 220 253 24,000  Level Minneapolis Center
Tue 02:33:29 PM 42.7247 -99.5489 250° West 220 253 24,000  Level Minneapolis Center
Tue 02:34:31 PM 42.7050 -99.6275 251° West 219 252 24,000  Level Minneapolis Center
Tue 02:35:33 PM 42.6861 -99.7053 252° West 219 252 24,000  Level Minneapolis Center
Tue 02:36:30 PM 42.6653 -99.7811 250° West 218 251 24,000  Level Denver Center
Tue 02:37:31 PM 42.6442 -99.8594 250° West 221 254 24,000  Level Denver Center
Tue 02:38:33 PM 42.6244 -99.9353 251° West 215 247 24,000  Level Denver Center
Tue 02:39:47 PM 42.6028 -100.0119 249° West 214 246 24,000  Level Denver Center
Tue 02:40:49 PM 42.5772 -100.1114 251° West 218 251 24,000  Level Denver Center
Tue 02:41:50 PM 42.5547 -100.1956 250° West 214 246 24,000  Level Denver Center
Tue 02:42:52 PM 42.5358 -100.2678 250° West 212 244 24,000  Level Denver Center
Tue 02:43:54 PM 42.5136 -100.3542 251° West 217 250 24,000  Level Denver Center
Tue 02:44:55 PM 42.4950 -100.4267 251° West 215 247 24,000  Level Denver Center
Tue 02:45:57 PM 42.4753 -100.4992 250° West 214 246 24,000  Level Denver Center
Tue 02:46:59 PM 42.4519 -100.5836 249° West 215 247 24,000  Level Denver Center
Tue 02:48:01 PM 42.4317 -100.6533 249° West 211 243 24,000  Level Denver Center
Tue 02:49:02 PM 42.4083 -100.7381 250° West 213 245 24,000  Level Denver Center
Tue 02:50:04 PM 42.3886 -100.8086 249° West 211 243 24,000  Level Denver Center
Tue 02:51:06 PM 42.3672 -100.8917 251° West 210 242 24,000  Level Denver Center
Tue 02:52:07 PM 42.3489 -100.9650 251° West 214 246 24,000  Level Denver Center
Tue 02:53:09 PM 42.3322 -101.0381 253° West 212 244 24,000  Level Denver Center
Tue 02:54:11 PM 42.3106 -101.1211 251° West 211 243 24,000  Level Denver Center
Tue 02:55:12 PM 42.2933 -101.1933 252° West 214 246 24,000  Level Denver Center
Tue 02:56:14 PM 42.2742 -101.2764 253° West 209 241 24,000  Level Denver Center
Tue 02:57:16 PM 42.2575 -101.3483 253° West 210 242 24,000  Level Denver Center
Tue 02:58:17 PM 42.2444 -101.4075 253° West 208 239 24,000  Level Denver Center
Tue 02:59:19 PM 42.2233 -101.5067 254° West 218 251 24,000  Level Denver Center
Tue 03:00:21 PM 42.2011 -101.5808 248° West 194 223 24,000  Level Denver Center
Tue 03:01:22 PM 42.1808 -101.6428 246° West 190 219 24,000  Level Denver Center
Tue 03:02:24 PM 42.1611 -101.7044 247° West 188 216 24,000  Level Denver Center
Tue 03:03:26 PM 42.1378 -101.7786 247° West 191 220 24,000  Level Denver Center
Tue 03:04:27 PM 42.1186 -101.8417 248° West 191 220 24,000  Level Denver Center
Tue 03:05:29 PM 42.0956 -101.9164 247° West 193 222 24,000  Level Denver Center
Tue 03:06:31 PM 42.0706 -101.9775 241° Southwest 193 222 24,000  Level Denver Center
Tue 03:07:32 PM 42.0408 -102.0492 241° Southwest 196 226 24,000  Level Denver Center
Tue 03:08:34 PM 42.0144 -102.1089 239° Southwest 195 224 24,000  Level Denver Center
Tue 03:09:35 PM 41.9928 -102.1581 239° Southwest 193 222 24,000  Level Denver Center
Tue 03:10:37 PM 41.9589 -102.2381 240° Southwest 194 223 24,000  Level Denver Center
Tue 03:11:39 PM 41.9278 -102.2986 235° Southwest 197 227 24,000  Level Denver Center
Tue 03:12:41 PM 41.8986 -102.3719 242° Southwest 200 230 24,000  Level Denver Center
Tue 03:13:42 PM 41.8706 -102.4325 238° Southwest 199 229 24,000  Level Denver Center
Tue 03:14:44 PM 41.8417 -102.5036 241° Southwest 197 227 24,000  Level Denver Center
Tue 03:15:46 PM 41.8203 -102.5675 246° West 198 228 24,000  Level Denver Center
Tue 03:16:47 PM 41.8019 -102.6319 249° West 196 226 24,000  Level Denver Center
Tue 03:17:49 PM 41.7772 -102.7036 245° Southwest 191 220 24,000  Level Denver Center
Tue 03:18:51 PM 41.7508 -102.7642 240° Southwest 194 223 24,000  Level Denver Center
Tue 03:19:52 PM 41.7189 -102.8328 238° Southwest 194 223 24,000  Level Denver Center
Tue 03:20:54 PM 41.6914 -102.8919 238° Southwest 195 224 24,000  Level Denver Center
Tue 03:22:08 PM 41.6569 -102.9717 240° Southwest 194 223 24,000  Level Denver Center
Tue 03:23:10 PM 41.6333 -103.0333 243° Southwest 195 224 24,000  Level Denver Center
Tue 03:24:11 PM 41.6108 -103.1072 248° West 193 222 24,000  Level Denver Center
Tue 03:25:13 PM 41.5950 -103.1742 252° West 195 224 24,000  Level Denver Center
Tue 03:26:15 PM 41.5811 -103.2517 257° West 193 222 24,000  Level Denver Center
Tue 03:27:16 PM 41.5667 -103.3178 254° West 194 223 24,000  Level Denver Center
Tue 03:28:18 PM 41.5483 -103.3825 249° West 194 223 24,000  Level Denver Center
Tue 03:29:20 PM 41.5289 -103.4575 251° West 193 222 24,000 -293 Level Denver Center
Tue 03:30:21 PM 41.5092 -103.5194 247° West 190 219 23,400 -683 Descending Denver Center
Tue 03:31:23 PM 41.4856 -103.5928 247° West 192 221 22,600 -919 Descending Denver Center
Tue 03:32:25 PM 41.4628 -103.6561 244° Southwest 195 224 21,500 -1,122 Descending Denver Center
Tue 03:33:26 PM 41.4372 -103.7328 246° West 200 230 20,300 -1,171 Descending Denver Center
Tue 03:34:28 PM 41.4219 -103.7994 253° West 199 229 19,100 -1,210 Descending Denver Center
Tue 03:35:30 PM 41.4081 -103.8711 256° West 206 237 17,800 -1,597 Descending Denver Center
Tue 03:36:32 PM 41.3942 -103.9594 258° West 215 247 15,800 -1,707 Descending Denver Center
Tue 03:37:33 PM 41.3794 -104.0383 256° West 222 255 14,300 -1,220 Descending Denver Center
Tue 03:38:35 PM 41.3639 -104.1250 257° West 221 254 13,300 -574 Descending Denver Center
Tue 03:39:49 PM 41.3531 -104.1908 258° West 211 243 13,000 -243 Descending Denver Center
Tue 03:41:00 PM 41.2953 -104.2515 251° West  Level FlightAware Approximate
Tue 03:48:00 PM 41.1624 -104.7535 251° West  Level FlightAware Approximate
Tue 03:49:00 PM 41.1500 -104.8000 251° West  Level FlightAware Approximate
Tue 03:50:00 PM 41.1556 -104.8105 251° West  Level Estimated
Tue 03:51:00 PM 41.1556 -104.8105 251° West  Level Estimated
Tue 03:52:00 PM 41.1556 -104.8105 251° West  Level Estimated
Tue 03:53:00 PM 41.1556 -104.8105 251° West  Level Estimated
Tue 03:54:00 PM 41.1556 -104.8105 251° West  Level Estimated
Tue 03:55:00 PM 41.1556 -104.8105 251° West  Level Estimated
Tue 03:56:00 PM 41.1556 -104.8105 251° West  Level Estimated
Tue 03:57:00 PM 41.1556 -104.8105 251° West  Level Estimated

Login

Don't have an account? Register now (free) for customized features, flight alerts, and more!